»·PEaware :: UPS2023 KPDX-KSFO

UPS2023 :: KPDX-KSFO

FLIGHT INFORMATION

Flight Status: Arrived
Operator:
United Parcel Service
More flights by this operator :: More flights under this callsign
Pilot: Will K. (13011)
Aircraft: BOEING 747-400 (WINGLETS)
(B744)
More flights by this aircraft type
Origin: KPDX Portland Intl
United States
Destination: KSFO San Francisco Intl
United States
More flights between these airports :: More routes between these airports
Route: MINNE5 FAMUK Q3 FOWND MLBEC BDEGA2
File this flight plan on PilotEdge
Remarks:
Altitude:
(Current/Filed)
33,000ft
Speed:
(Current/Filed)
350kts
Departed: 03-Aug-18 07:56 PM
Arrived: 03-Aug-18 09:20 PM
Distance/Time
Traveled:
477nm/1:23
Distance/Time
To Go:
Arrived

Flight Plot

Page will automatically refresh every two minutes.


Map Options




Map Legend


Flown Route
Filed Route
Departure Airport
Arrival Airport
Navaid (VOR, NDB)
Fix

Horizontal Profiles

Position Reports

Time Latitude Longitude Heading Altitude Ground
Speed
03-Aug-18 19:28 45.579810 -122.610801 226 31ft 0kts
03-Aug-18 19:29 45.579810 -122.610801 226 31ft 0kts
03-Aug-18 19:30 45.579810 -122.610801 226 31ft 0kts
03-Aug-18 19:31 45.579810 -122.610801 226 31ft 0kts
03-Aug-18 19:32 45.579810 -122.610801 226 31ft 0kts
03-Aug-18 19:33 45.579810 -122.610801 226 31ft 0kts
03-Aug-18 19:34 45.579810 -122.610801 226 31ft 0kts
03-Aug-18 19:35 45.579810 -122.610801 226 31ft 0kts
03-Aug-18 19:36 45.579810 -122.610801 226 31ft 0kts
03-Aug-18 19:37 45.579810 -122.610801 226 31ft 0kts
03-Aug-18 19:38 45.579810 -122.610801 226 31ft 0kts
03-Aug-18 19:39 45.579810 -122.610801 226 31ft 0kts
03-Aug-18 19:40 45.580103 -122.610368 226 31ft 2kts
03-Aug-18 19:41 45.580435 -122.609878 226 31ft 0kts
03-Aug-18 19:42 45.580435 -122.609878 226 31ft 0kts
03-Aug-18 19:43 45.580435 -122.609878 226 31ft 0kts
03-Aug-18 19:44 45.580435 -122.609878 226 31ft 0kts
03-Aug-18 19:45 45.580435 -122.609878 226 31ft 0kts
03-Aug-18 19:46 45.580435 -122.609878 226 31ft 0kts
03-Aug-18 19:47 45.580435 -122.609878 226 31ft 0kts
03-Aug-18 19:48 45.580435 -122.609878 226 31ft 0kts
03-Aug-18 19:49 45.580422 -122.610205 293 31ft 10kts
03-Aug-18 19:50 45.583813 -122.612680 45 31ft 16kts
03-Aug-18 19:51 45.587892 -122.606677 75 31ft 16kts
03-Aug-18 19:52 45.585164 -122.598981 118 31ft 25kts
03-Aug-18 19:53 45.582174 -122.591239 118 31ft 20kts
03-Aug-18 19:54 45.579887 -122.585219 106 31ft 0kts
03-Aug-18 19:55 45.579887 -122.585219 106 31ft 0kts
03-Aug-18 19:56 45.580931 -122.584905 300 31ft 0kts
03-Aug-18 19:57 45.591116 -122.611509 298 219ft 187kts
03-Aug-18 19:58 45.619676 -122.678402 302 2875ft 218kts
03-Aug-18 19:59 45.655060 -122.764851 300 4903ft 263kts
03-Aug-18 20:00 45.664275 -122.868427 252 7785ft 285kts
03-Aug-18 20:01 45.595387 -122.924578 191 10500ft 312kts
03-Aug-18 20:02 45.496667 -122.937242 186 11484ft 395kts
03-Aug-18 20:03 45.384294 -122.949993 186 14554ft 413kts
03-Aug-18 20:04 45.266725 -122.963603 187 17749ft 431kts
03-Aug-18 20:05 45.146165 -122.985618 192 20578ft 445kts
03-Aug-18 20:06 45.021409 -123.015422 192 23157ft 461kts
03-Aug-18 20:07 44.892751 -123.045291 193 25548ft 475kts
03-Aug-18 20:08 44.760966 -123.076017 193 27702ft 484kts
03-Aug-18 20:09 44.629771 -123.106157 193 30274ft 474kts
03-Aug-18 20:10 44.500633 -123.134031 189 32352ft 471kts
03-Aug-18 20:11 44.391251 -123.133071 183 33148ft 473kts
03-Aug-18 20:12 44.238218 -123.126618 184 33141ft 471kts
03-Aug-18 20:13 44.107153 -123.121858 184 33139ft 471kts
03-Aug-18 20:14 43.997962 -123.117969 184 33138ft 470kts
03-Aug-18 20:15 43.868469 -123.113393 185 33133ft 464kts
03-Aug-18 20:16 43.717385 -123.108106 185 33123ft 464kts
03-Aug-18 20:17 43.588532 -123.103606 185 33114ft 464kts
03-Aug-18 20:18 43.481065 -123.099869 186 33107ft 463kts
03-Aug-18 20:19 43.330350 -123.094652 186 33102ft 463kts
03-Aug-18 20:20 43.223155 -123.090957 186 33101ft 462kts
03-Aug-18 20:21 43.094649 -123.086544 186 33114ft 462kts
03-Aug-18 20:22 42.966339 -123.082159 186 33131ft 461kts
03-Aug-18 20:23 42.838312 -123.077798 187 33152ft 460kts
03-Aug-18 20:24 42.710147 -123.073436 187 33166ft 459kts
03-Aug-18 20:25 42.582485 -123.069134 187 33161ft 459kts
03-Aug-18 20:26 42.455183 -123.064885 187 33125ft 458kts
03-Aug-18 20:27 42.327446 -123.060757 188 33103ft 458kts
03-Aug-18 20:28 42.200063 -123.056658 188 33107ft 457kts
03-Aug-18 20:29 42.072830 -123.052555 188 33114ft 457kts
03-Aug-18 20:30 41.945980 -123.048474 188 33116ft 456kts
03-Aug-18 20:31 41.819354 -123.044445 188 33118ft 455kts
03-Aug-18 20:32 41.692791 -123.040425 188 33130ft 455kts
03-Aug-18 20:33 41.566270 -123.036408 188 33129ft 455kts
03-Aug-18 20:34 41.439561 -123.032422 188 33118ft 455kts
03-Aug-18 20:35 41.313363 -123.028487 188 33101ft 454kts
03-Aug-18 20:36 41.186590 -123.024655 188 33103ft 454kts
03-Aug-18 20:37 41.060185 -123.020853 189 33093ft 454kts
03-Aug-18 20:38 40.933773 -123.017040 189 33083ft 454kts
03-Aug-18 20:39 40.807305 -123.013241 189 33073ft 454kts
03-Aug-18 20:40 40.681248 -123.009477 189 33067ft 453kts
03-Aug-18 20:41 40.555471 -123.005737 189 33059ft 453kts
03-Aug-18 20:42 40.429296 -123.001999 189 33049ft 453kts
03-Aug-18 20:43 40.302916 -122.998269 189 33032ft 453kts
03-Aug-18 20:44 40.176880 -122.994563 189 33016ft 453kts
03-Aug-18 20:45 40.050994 -122.990875 189 33043ft 453kts
03-Aug-18 20:46 39.924695 -122.987190 188 32975ft 454kts
03-Aug-18 20:47 39.798207 -122.983510 188 32973ft 454kts
03-Aug-18 20:48 39.671682 -122.979845 188 32985ft 454kts
03-Aug-18 20:49 39.545465 -122.976201 188 32991ft 455kts
03-Aug-18 20:50 39.418997 -122.972562 188 32997ft 455kts
03-Aug-18 20:51 39.292272 -122.968921 188 33001ft 455kts
03-Aug-18 20:52 39.165629 -122.965312 188 33004ft 455kts
03-Aug-18 20:53 39.040211 -122.962218 189 32996ft 435kts
03-Aug-18 20:54 38.926908 -122.960012 190 32346ft 388kts
03-Aug-18 20:55 38.819564 -122.943925 177 30452ft 392kts
03-Aug-18 20:56 38.714747 -122.911572 177 28651ft 379kts
03-Aug-18 20:57 38.613683 -122.881739 176 26925ft 366kts
03-Aug-18 20:58 38.515906 -122.852881 175 25240ft 366kts
03-Aug-18 20:59 38.415735 -122.823409 174 23486ft 364kts
03-Aug-18 21:00 38.319024 -122.795100 174 21764ft 350kts
03-Aug-18 21:01 38.225554 -122.767796 173 20075ft 338kts
03-Aug-18 21:02 38.135499 -122.741500 173 18429ft 326kts
03-Aug-18 21:03 38.046290 -122.715671 172 16783ft 331kts
03-Aug-18 21:04 37.957343 -122.689969 171 15115ft 323kts
03-Aug-18 21:05 37.875121 -122.648853 146 13502ft 323kts
03-Aug-18 21:06 37.807318 -122.575351 142 11942ft 322kts
03-Aug-18 21:07 37.739734 -122.504066 141 11058ft 299kts
03-Aug-18 21:08 37.673663 -122.433745 141 11009ft 316kts
03-Aug-18 21:09 37.605547 -122.364516 150 11001ft 307kts
03-Aug-18 21:10 37.532308 -122.315194 154 10753ft 288kts
03-Aug-18 21:11 37.473746 -122.251710 118 8832ft 283kts
03-Aug-18 21:12 37.440729 -122.162636 114 6985ft 276kts
03-Aug-18 21:13 37.434854 -122.075107 47 5415ft 249kts
03-Aug-18 21:14 37.489912 -122.072378 325 4143ft 202kts
03-Aug-18 21:15 37.516337 -122.124442 296 3366ft 162kts
03-Aug-18 21:16 37.535831 -122.172128 297 3050ft 150kts
03-Aug-18 21:17 37.555518 -122.219042 298 2429ft 152kts
03-Aug-18 21:18 37.575490 -122.266569 299 1610ft 155kts
03-Aug-18 21:19 37.594899 -122.312792 298 720ft 139kts
03-Aug-18 21:20 37.613022 -122.356022 298 101ft 138kts
03-Aug-18 21:21 37.622483 -122.378481 298 26ft 38kts
03-Aug-18 21:22 37.626313 -122.383912 297 26ft 26kts
03-Aug-18 21:23 37.629404 -122.391288 298 26ft 16kts
03-Aug-18 21:24 37.632473 -122.391592 343 26ft 12kts
03-Aug-18 21:25 37.634363 -122.389292 73 26ft 10kts
03-Aug-18 21:26 37.636301 -122.388550 48 26ft 4kts
03-Aug-18 21:27 37.636578 -122.388045 56 26ft 0kts
03-Aug-18 21:28 37.636578 -122.388045 56 26ft 0kts
03-Aug-18 21:29 37.636578 -122.388045 56 26ft 0kts
03-Aug-18 21:30 37.636578 -122.388045 56 26ft 0kts

Navigation Log

Ident Type
1. KPDX Airport
2. RIVRR Fix
3. COSUG Fix
4. BISLE Fix
5. MINNE Fix
6. FAMUK Fix
7. FAMUK Navaid
8. FRFLY Navaid
9. FINER Navaid
10. FOWND Navaid
11. MLBEC Fix
12. JONNE Fix
13. BGGLO Fix
14. LOZIT Fix
15. BDEGA Fix
16. CORKK Fix
17. BRIXX Fix
18. KSFO Airport